Time;durP1;ratioP1;P1;durP2;ratioP2;P2;SDS_P1;SDS_P2;PMS_P1;PMS_P2;Temp;Humidity;BMP_temperature;BMP_pressure;BME280_temperature;BME280_humidity;BME280_pressure;Samples;Min_cycle;Max_cycle;Signal;HPM_P1;HPM_P2
2022/06/27 05:34:54;;;;;;;2.27;1.70;;;;;;;;;;7384971;19;20196;-85
2022/06/27 05:37:20;;;;;;;2.03;1.50;;;;;;;;;;7382359;19;20425;-83
2022/06/27 05:39:46;;;;;;;1.60;1.47;;;;;;;;;;7383622;19;20208;-84
2022/06/27 05:42:11;;;;;;;2.17;1.40;;;;;;;;;;7388477;19;20839;-82
2022/06/27 05:44:37;;;;;;;1.40;1.30;;;;;;;;;;7386193;19;20174;-84
2022/06/27 05:47:03;;;;;;;1.70;1.60;;;;;;;;;;7384853;19;20156;-82
2022/06/27 05:49:28;;;;;;;2.03;1.67;;;;;;;;;;7389850;19;20837;-84
2022/06/27 05:51:55;;;;;;;3.33;1.40;;;;;;;;;;7385716;19;20554;-83
2022/06/27 05:54:21;;;;;;;1.40;1.30;;;;;;;;;;7385907;19;20161;-83
2022/06/27 05:56:47;;;;;;;3.23;1.13;;;;;;;;;;7384422;19;20606;-84
2022/06/27 05:59:13;;;;;;;1.60;1.50;;;;;;;;;;7383252;19;20125;-82
2022/06/27 06:01:40;;;;;;;1.37;1.20;;;;;;;;;;7371565;19;20184;-83
2022/06/27 06:04:05;;;;;;;1.33;1.20;;;;;;;;;;7380679;19;20140;-82
2022/06/27 06:06:30;;;;;;;3.50;1.30;;;;;;;;;;7377066;19;20498;-82
2022/06/27 06:08:57;;;;;;;1.77;1.20;;;;;;;;;;7387289;19;20212;-84
2022/06/27 06:11:23;;;;;;;2.72;1.50;;;;;;;;;;7382939;19;20148;-82
2022/06/27 06:13:48;;;;;;;2.20;1.05;;;;;;;;;;7385850;19;20163;-84
2022/06/27 06:16:19;;;;;;;1.20;1.13;;;;;;;;;;7383712;19;20646;-85
2022/06/27 06:18:47;;;;;;;1.30;1.20;;;;;;;;;;7377806;19;20482;-81
2022/06/27 06:21:12;;;;;;;1.98;1.30;;;;;;;;;;7366717;19;20176;-83
2022/06/27 06:23:38;;;;;;;1.80;1.10;;;;;;;;;;7382030;19;20134;-83
2022/06/27 06:26:05;;;;;;;2.72;1.27;;;;;;;;;;7375360;19;20165;-82
2022/06/27 06:28:30;;;;;;;2.30;1.40;;;;;;;;;;7387188;19;20160;-82
2022/06/27 06:30:56;;;;;;;3.38;1.30;;;;;;;;;;7385168;19;20545;-82
2022/06/27 06:33:21;;;;;;;1.35;1.17;;;;;;;;;;7386275;19;20157;-82
2022/06/27 06:35:47;;;;;;;3.20;1.33;;;;;;;;;;7380627;19;20550;-80
2022/06/27 06:38:13;;;;;;;2.28;1.48;;;;;;;;;;7385080;19;20121;-80
2022/06/27 06:40:39;;;;;;;1.23;1.13;;;;;;;;;;7386730;19;20604;-81
2022/06/27 06:43:04;;;;;;;1.00;1.00;;;;;;;;;;7385055;19;20159;-80
2022/06/27 06:45:30;;;;;;;1.23;1.13;;;;;;;;;;7385865;19;20139;-80
2022/06/27 06:47:56;;;;;;;2.58;1.50;;;;;;;;;;7388589;19;20165;-81
2022/06/27 06:50:22;;;;;;;2.60;1.20;;;;;;;;;;7385995;19;20263;-80
2022/06/27 06:52:49;;;;;;;3.08;1.10;;;;;;;;;;7380624;19;20120;-81
2022/06/27 06:55:16;;;;;;;4.35;1.42;;;;;;;;;;7381654;19;20166;-80
2022/06/27 06:57:41;;;;;;;1.30;1.20;;;;;;;;;;7381814;19;20592;-78
2022/06/27 07:00:08;;;;;;;3.42;1.20;;;;;;;;;;7381153;19;20665;-81
2022/06/27 07:02:34;;;;;;;0.90;0.90;;;;;;;;;;7385254;19;20133;-80
2022/06/27 07:05:02;;;;;;;1.52;1.30;;;;;;;;;;7385867;19;20133;-80
2022/06/27 07:07:28;;;;;;;1.17;1.10;;;;;;;;;;7384420;19;20145;-80
2022/06/27 07:09:54;;;;;;;1.10;1.00;;;;;;;;;;7384296;19;20902;-79
2022/06/27 07:12:19;;;;;;;1.48;1.20;;;;;;;;;;7380459;19;20152;-80
2022/06/27 07:14:45;;;;;;;1.10;1.00;;;;;;;;;;7388157;19;20471;-79
2022/06/27 07:17:11;;;;;;;1.75;1.00;;;;;;;;;;7385534;19;20123;-78
2022/06/27 07:19:38;;;;;;;1.85;1.05;;;;;;;;;;7381390;19;20650;-82
2022/06/27 07:22:04;;;;;;;1.88;1.20;;;;;;;;;;7382054;19;20156;-78
2022/06/27 07:24:30;;;;;;;1.20;1.10;;;;;;;;;;7381321;19;20156;-78
2022/06/27 07:26:57;;;;;;;1.27;1.00;;;;;;;;;;7384527;19;20256;-79
2022/06/27 07:29:22;;;;;;;1.40;1.08;;;;;;;;;;7385530;19;20156;-79
2022/06/27 07:31:48;;;;;;;1.73;1.10;;;;;;;;;;7383015;19;20166;-80
2022/06/27 07:34:17;;;;;;;1.45;1.05;;;;;;;;;;7393187;19;20156;-81
2022/06/27 07:36:43;;;;;;;1.50;1.40;;;;;;;;;;7398619;19;20169;-80
2022/06/27 07:39:08;;;;;;;1.25;1.05;;;;;;;;;;7392461;19;20149;-80
2022/06/27 07:41:34;;;;;;;1.75;1.10;;;;;;;;;;7381775;19;20650;-80
2022/06/27 07:44:02;;;;;;;1.20;1.10;;;;;;;;;;7377549;19;20136;-80
2022/06/27 07:46:27;;;;;;;1.25;1.15;;;;;;;;;;7384685;19;20231;-80
2022/06/27 07:48:53;;;;;;;2.40;1.00;;;;;;;;;;7385355;19;20155;-79
2022/06/27 07:51:21;;;;;;;1.98;1.05;;;;;;;;;;7378214;19;20248;-79
2022/06/27 07:53:48;;;;;;;1.58;1.10;;;;;;;;;;7383656;19;20140;-80
2022/06/27 07:56:15;;;;;;;2.92;1.27;;;;;;;;;;7384230;19;20157;-78
2022/06/27 07:58:41;;;;;;;1.73;1.05;;;;;;;;;;7394290;19;20191;-80
2022/06/27 08:01:09;;;;;;;0.88;0.88;;;;;;;;;;7397567;19;20733;-81
2022/06/27 08:03:47;;;;;;;0.80;0.80;;;;;;;;;;7397313;19;20665;-79
2022/06/27 08:06:31;;;;;;;1.08;0.98;;;;;;;;;;7384957;19;20148;-79
2022/06/27 08:09:00;;;;;;;2.47;1.15;;;;;;;;;;7380768;19;20148;-80
2022/06/27 08:11:27;;;;;;;1.10;1.10;;;;;;;;;;7378792;19;20247;-80
2022/06/27 08:13:55;;;;;;;0.82;0.80;;;;;;;;;;7394294;19;20148;-81
2022/06/27 08:16:22;;;;;;;3.08;0.90;;;;;;;;;;7409993;19;20149;-81
2022/06/27 08:18:50;;;;;;;2.17;0.93;;;;;;;;;;7412420;19;20137;-81
2022/06/27 08:21:18;;;;;;;1.45;1.17;;;;;;;;;;7389926;19;20535;-79
2022/06/27 08:23:44;;;;;;;2.53;1.40;;;;;;;;;;7384080;19;20133;-79
2022/06/27 08:26:12;;;;;;;1.58;1.20;;;;;;;;;;7377592;19;20636;-79
2022/06/27 08:28:38;;;;;;;1.23;1.15;;;;;;;;;;7380833;19;20149;-80
2022/06/27 08:31:07;;;;;;;2.33;1.10;;;;;;;;;;7373549;19;20180;-78
2022/06/27 08:33:34;;;;;;;2.67;1.13;;;;;;;;;;7378800;19;20197;-79
2022/06/27 08:36:01;;;;;;;2.63;1.77;;;;;;;;;;7379768;19;20133;-79
2022/06/27 08:38:26;;;;;;;1.55;1.40;;;;;;;;;;7381239;19;20140;-80
2022/06/27 08:40:56;;;;;;;1.35;1.25;;;;;;;;;;7374161;19;20153;-79
2022/06/27 08:43:23;;;;;;;2.28;1.23;;;;;;;;;;7374535;19;20153;-79
2022/06/27 08:45:50;;;;;;;1.38;1.27;;;;;;;;;;7379843;19;20152;-79
2022/06/27 08:48:16;;;;;;;2.40;1.20;;;;;;;;;;7381100;19;20149;-79
2022/06/27 08:50:42;;;;;;;1.63;1.33;;;;;;;;;;7376962;19;20641;-79
2022/06/27 08:53:10;;;;;;;2.75;1.30;;;;;;;;;;7386522;19;20180;-79
2022/06/27 08:55:35;;;;;;;2.90;1.23;;;;;;;;;;7385485;19;20823;-80
2022/06/27 08:58:06;;;;;;;2.38;1.48;;;;;;;;;;7391104;19;20600;-79
2022/06/27 09:00:36;;;;;;;1.55;1.30;;;;;;;;;;7386659;19;20177;-79
2022/06/27 09:03:03;;;;;;;1.63;1.33;;;;;;;;;;7387226;19;20164;-80
2022/06/27 09:05:31;;;;;;;2.75;1.45;;;;;;;;;;7388474;19;20176;-80
2022/06/27 09:08:02;;;;;;;2.65;1.50;;;;;;;;;;7388747;19;20456;-79
2022/06/27 09:10:35;;;;;;;2.88;1.33;;;;;;;;;;7385260;19;20671;-79
2022/06/27 09:13:04;;;;;;;2.00;1.20;;;;;;;;;;7387110;19;20615;-80
2022/06/27 09:15:49;;;;;;;2.15;1.00;;;;;;;;;;7379833;19;20125;-78
2022/06/27 09:18:17;;;;;;;1.25;1.10;;;;;;;;;;7388362;19;20140;-80
2022/06/27 09:20:47;;;;;;;1.40;1.25;;;;;;;;;;7385305;19;20591;-80
2022/06/27 09:23:50;;;;;;;1.27;1.20;;;;;;;;;;7389731;19;20164;-80
2022/06/27 09:26:34;;;;;;;2.13;1.20;;;;;;;;;;7385470;19;22343;-81
2022/06/27 09:29:11;;;;;;;1.15;1.05;;;;;;;;;;7389166;19;20128;-79
2022/06/27 09:31:42;;;;;;;1.67;1.10;;;;;;;;;;7381566;19;20189;-80
2022/06/27 09:34:09;;;;;;;1.95;1.40;;;;;;;;;;7384366;19;20571;-80
2022/06/27 09:36:36;;;;;;;1.27;1.20;;;;;;;;;;7386413;19;20145;-79
2022/06/27 09:39:04;;;;;;;2.35;1.30;;;;;;;;;;7387635;19;20136;-80
2022/06/27 09:41:30;;;;;;;1.80;1.20;;;;;;;;;;7383896;19;20185;-80
2022/06/27 09:44:03;;;;;;;1.67;1.33;;;;;;;;;;7383613;19;20165;-81
2022/06/27 09:46:34;;;;;;;1.25;1.13;;;;;;;;;;7384215;19;20145;-80
2022/06/27 09:48:59;;;;;;;1.15;1.02;;;;;;;;;;7387214;19;20156;-80
2022/06/27 09:51:25;;;;;;;1.27;1.17;;;;;;;;;;7382655;19;20187;-80
2022/06/27 09:53:51;;;;;;;1.40;1.30;;;;;;;;;;7387774;19;20152;-80
2022/06/27 09:56:20;;;;;;;1.20;1.10;;;;;;;;;;7383212;19;20157;-80
2022/06/27 09:58:46;;;;;;;2.20;1.15;;;;;;;;;;7387891;19;20140;-80
2022/06/27 10:01:11;;;;;;;1.38;1.20;;;;;;;;;;7388355;19;20521;-80
2022/06/27 10:03:37;;;;;;;2.35;1.55;;;;;;;;;;7384768;19;20603;-80
2022/06/27 10:06:07;;;;;;;2.00;1.20;;;;;;;;;;7382098;19;20212;-80
2022/06/27 10:08:35;;;;;;;2.03;1.38;;;;;;;;;;7388165;19;20696;-79
2022/06/27 10:11:00;;;;;;;1.30;1.20;;;;;;;;;;7383389;19;20553;-81
2022/06/27 10:13:25;;;;;;;2.38;1.45;;;;;;;;;;7388120;19;20153;-80
2022/06/27 10:15:51;;;;;;;4.85;1.77;;;;;;;;;;7391166;19;20512;-81
2022/06/27 10:18:16;;;;;;;1.95;1.10;;;;;;;;;;7391308;19;20157;-80
2022/06/27 10:20:47;;;;;;;3.00;1.30;;;;;;;;;;7390262;19;20572;-80
2022/06/27 10:23:13;;;;;;;1.40;1.30;;;;;;;;;;7388327;19;20183;-80
2022/06/27 10:25:44;;;;;;;3.00;1.40;;;;;;;;;;7397299;19;20152;-80
2022/06/27 10:28:13;;;;;;;1.75;1.30;;;;;;;;;;7410381;19;20219;-80
2022/06/27 10:30:52;;;;;;;1.55;1.10;;;;;;;;;;7407790;19;20173;-80
2022/06/27 10:33:17;;;;;;;1.52;1.40;;;;;;;;;;7388200;19;20589;-80
2022/06/27 10:35:59;;;;;;;1.40;1.20;;;;;;;;;;7412221;19;20152;-81
2022/06/27 10:38:56;;;;;;;4.28;1.50;;;;;;;;;;7383173;19;20515;-80
2022/06/27 10:41:23;;;;;;;1.25;1.15;;;;;;;;;;7392708;19;20169;-80
2022/06/27 10:43:49;;;;;;;1.55;1.23;;;;;;;;;;7401259;19;20190;-80
2022/06/27 10:46:14;;;;;;;1.17;1.08;;;;;;;;;;7387254;19;20125;-79
2022/06/27 10:48:41;;;;;;;1.08;1.00;;;;;;;;;;7387477;19;20212;-80
2022/06/27 10:51:19;;;;;;;2.90;1.33;;;;;;;;;;7381886;19;20156;-80
2022/06/27 10:53:49;;;;;;;1.00;0.90;;;;;;;;;;7386730;19;20140;-79
2022/06/27 10:56:30;;;;;;;1.08;1.02;;;;;;;;;;7383113;19;20172;-79
2022/06/27 10:59:06;;;;;;;1.10;1.00;;;;;;;;;;7392336;19;20125;-79
2022/06/27 11:01:32;;;;;;;3.20;0.98;;;;;;;;;;7386357;19;20171;-81
2022/06/27 11:03:58;;;;;;;1.60;1.40;;;;;;;;;;7391529;19;20184;-80
2022/06/27 11:06:24;;;;;;;1.40;1.05;;;;;;;;;;7391418;19;20141;-80
2022/06/27 11:08:52;;;;;;;1.02;1.00;;;;;;;;;;7391301;19;20155;-80
2022/06/27 11:11:19;;;;;;;1.00;0.90;;;;;;;;;;7389560;19;20729;-80
2022/06/27 11:13:47;;;;;;;1.15;1.05;;;;;;;;;;7384797;19;20169;-80
2022/06/27 11:16:15;;;;;;;1.25;0.98;;;;;;;;;;7385458;19;20133;-80
2022/06/27 11:19:02;;;;;;;1.20;1.10;;;;;;;;;;7387526;19;20512;-79
2022/06/27 11:21:33;;;;;;;0.90;0.90;;;;;;;;;;7383083;19;20199;-80
2022/06/27 11:24:02;;;;;;;1.67;1.30;;;;;;;;;;7384879;19;20198;-79
2022/06/27 11:26:44;;;;;;;1.23;1.00;;;;;;;;;;7384446;19;20156;-80
2022/06/27 11:32:11;;;;;;;1.13;1.00;;;;;;;;;;7416994;19;20160;-80
2022/06/27 11:34:39;;;;;;;1.42;1.33;;;;;;;;;;7391873;19;20159;-80
2022/06/27 11:37:23;;;;;;;1.98;1.20;;;;;;;;;;7383351;19;20520;-80
2022/06/27 11:40:04;;;;;;;1.58;1.00;;;;;;;;;;7388006;19;20200;-80
2022/06/27 11:42:32;;;;;;;1.38;1.20;;;;;;;;;;7383343;19;20153;-80
2022/06/27 11:45:47;;;;;;;2.35;1.20;;;;;;;;;;7388911;19;20148;-80
2022/06/27 11:48:14;;;;;;;1.48;1.20;;;;;;;;;;7386397;19;20606;-80
2022/06/27 11:50:40;;;;;;;1.10;1.10;;;;;;;;;;7385298;19;20188;-80
2022/06/27 11:53:05;;;;;;;7.28;1.80;;;;;;;;;;7388709;19;20145;-80
2022/06/27 11:55:31;;;;;;;4.57;1.27;;;;;;;;;;7387333;19;20160;-80
2022/06/27 11:57:58;;;;;;;1.60;1.17;;;;;;;;;;7384551;19;20157;-80
2022/06/27 12:00:32;;;;;;;1.00;1.00;;;;;;;;;;7388901;19;20166;-80
2022/06/27 12:03:06;;;;;;;1.10;1.00;;;;;;;;;;7383783;19;20120;-79
2022/06/27 12:05:33;;;;;;;1.67;1.20;;;;;;;;;;7384442;19;20140;-79
2022/06/27 12:08:08;;;;;;;1.13;1.00;;;;;;;;;;7389746;19;20144;-80
2022/06/27 12:10:44;;;;;;;1.40;1.10;;;;;;;;;;7380918;19;20152;-80
2022/06/27 12:13:16;;;;;;;1.23;1.13;;;;;;;;;;7385180;19;20136;-80
2022/06/27 12:15:44;;;;;;;4.45;1.38;;;;;;;;;;7366927;19;20552;-80
2022/06/27 12:18:12;;;;;;;1.83;1.00;;;;;;;;;;7380180;19;20125;-80
2022/06/27 12:20:41;;;;;;;1.10;1.00;;;;;;;;;;7385679;19;20202;-80
2022/06/27 12:23:07;;;;;;;1.35;1.15;;;;;;;;;;7411505;19;20188;-80
2022/06/27 12:25:35;;;;;;;1.17;1.08;;;;;;;;;;7404986;19;20140;-80
2022/06/27 12:28:10;;;;;;;0.90;0.90;;;;;;;;;;7394443;19;20133;-80
2022/06/27 12:30:35;;;;;;;1.90;1.05;;;;;;;;;;7391737;19;20182;-80
2022/06/27 12:33:00;;;;;;;2.42;1.20;;;;;;;;;;7393056;19;20129;-80
2022/06/27 12:35:26;;;;;;;1.10;1.10;;;;;;;;;;7393718;19;20492;-80
2022/06/27 12:37:58;;;;;;;1.00;1.00;;;;;;;;;;7395236;19;20150;-80
2022/06/27 12:40:23;;;;;;;1.25;1.15;;;;;;;;;;7394429;19;20168;-80
2022/06/27 12:42:49;;;;;;;2.17;1.27;;;;;;;;;;7392859;19;20137;-80
2022/06/27 12:45:14;;;;;;;1.42;1.15;;;;;;;;;;7392734;19;20155;-81
2022/06/27 12:47:39;;;;;;;1.27;1.15;;;;;;;;;;7394516;19;20129;-80
2022/06/27 12:50:06;;;;;;;1.33;1.23;;;;;;;;;;7396726;19;20145;-81
2022/06/27 12:52:31;;;;;;;1.25;1.15;;;;;;;;;;7395960;19;20153;-80
2022/06/27 12:54:57;;;;;;;2.85;1.30;;;;;;;;;;7396058;19;20144;-80
2022/06/27 12:57:22;;;;;;;1.58;1.25;;;;;;;;;;7393486;19;20495;-80
2022/06/27 12:59:47;;;;;;;1.67;0.95;;;;;;;;;;7392732;19;20585;-80
2022/06/27 13:02:15;;;;;;;1.40;1.30;;;;;;;;;;7399235;19;20129;-81
2022/06/27 13:04:40;;;;;;;1.55;1.17;;;;;;;;;;7396697;19;20136;-81
2022/06/27 13:07:06;;;;;;;3.53;1.42;;;;;;;;;;7397125;19;20173;-80
2022/06/27 13:09:31;;;;;;;1.08;1.00;;;;;;;;;;7395777;19;20161;-81
2022/06/27 13:11:57;;;;;;;1.08;1.00;;;;;;;;;;7392108;19;20175;-80
2022/06/27 13:14:22;;;;;;;2.65;1.10;;;;;;;;;;7395931;19;20217;-80
2022/06/27 13:16:49;;;;;;;1.15;0.95;;;;;;;;;;7394996;19;20137;-81
2022/06/27 13:19:15;;;;;;;2.00;1.10;;;;;;;;;;7394403;19;20136;-81
2022/06/27 13:21:40;;;;;;;1.75;1.10;;;;;;;;;;7393360;19;20307;-80
2022/06/27 13:24:06;;;;;;;0.90;0.90;;;;;;;;;;7394283;19;20143;-80
2022/06/27 13:26:31;;;;;;;1.10;1.10;;;;;;;;;;7382087;19;20157;-79
2022/06/27 13:28:57;;;;;;;1.05;0.93;;;;;;;;;;7392991;19;20141;-80
2022/06/27 13:31:22;;;;;;;0.85;0.85;;;;;;;;;;7388450;19;20176;-80
2022/06/27 13:33:48;;;;;;;1.50;1.20;;;;;;;;;;7395083;19;20160;-80
2022/06/27 13:36:13;;;;;;;1.27;1.17;;;;;;;;;;7387900;19;20606;-80
2022/06/27 13:38:39;;;;;;;1.60;1.50;;;;;;;;;;7405052;19;20165;-81
2022/06/27 13:41:04;;;;;;;1.42;1.10;;;;;;;;;;7411700;19;20176;-82
2022/06/27 13:43:29;;;;;;;1.10;1.00;;;;;;;;;;7419669;19;20200;-82
2022/06/27 13:45:55;;;;;;;1.20;1.10;;;;;;;;;;7421000;19;20244;-81
2022/06/27 13:48:20;;;;;;;1.20;1.10;;;;;;;;;;7419511;19;20125;-81
2022/06/27 13:50:45;;;;;;;0.85;0.85;;;;;;;;;;7406324;19;20192;-82
2022/06/27 13:53:11;;;;;;;1.20;1.00;;;;;;;;;;7420728;19;20129;-81
2022/06/27 13:55:37;;;;;;;1.20;1.10;;;;;;;;;;7420302;19;22220;-81
2022/06/27 13:58:04;;;;;;;1.70;1.00;;;;;;;;;;7414382;19;20141;-82
2022/06/27 14:00:29;;;;;;;2.60;1.20;;;;;;;;;;7417965;19;20195;-82
2022/06/27 14:02:55;;;;;;;1.80;1.30;;;;;;;;;;7415928;19;20125;-81
2022/06/27 14:05:21;;;;;;;1.25;1.15;;;;;;;;;;7418291;19;20153;-82
2022/06/27 14:07:46;;;;;;;1.40;1.30;;;;;;;;;;7414608;19;20148;-82
2022/06/27 14:10:16;;;;;;;1.27;1.20;;;;;;;;;;7418819;19;20169;-82
2022/06/27 14:12:43;;;;;;;1.08;1.00;;;;;;;;;;7420269;19;20156;-82
2022/06/27 14:15:09;;;;;;;1.10;1.00;;;;;;;;;;7415239;19;20152;-81
2022/06/27 14:17:34;;;;;;;1.10;1.00;;;;;;;;;;7402663;19;20156;-81
2022/06/27 14:20:00;;;;;;;0.98;0.90;;;;;;;;;;7392499;19;20192;-81
2022/06/27 14:22:26;;;;;;;2.10;0.93;;;;;;;;;;7389145;19;20172;-81
2022/06/27 14:24:51;;;;;;;1.60;1.50;;;;;;;;;;7390452;19;20149;-81
2022/06/27 14:27:18;;;;;;;2.60;0.98;;;;;;;;;;7393205;19;20169;-82
2022/06/27 14:29:45;;;;;;;1.23;1.13;;;;;;;;;;7391943;19;20504;-80
2022/06/27 14:32:11;;;;;;;1.75;1.10;;;;;;;;;;7382538;19;20570;-80
2022/06/27 14:34:36;;;;;;;2.50;1.30;;;;;;;;;;7386575;19;20149;-81
2022/06/27 14:37:02;;;;;;;1.92;1.10;;;;;;;;;;7388766;19;20486;-80
2022/06/27 14:39:27;;;;;;;2.50;1.02;;;;;;;;;;7385667;19;20144;-80
2022/06/27 14:41:52;;;;;;;2.05;1.23;;;;;;;;;;7389646;19;20172;-81
2022/06/27 14:44:18;;;;;;;1.52;0.90;;;;;;;;;;7385099;19;20144;-81
2022/06/27 14:46:44;;;;;;;1.25;1.15;;;;;;;;;;7387547;19;20623;-80
2022/06/27 14:49:09;;;;;;;1.55;1.15;;;;;;;;;;7390689;19;20143;-81
2022/06/27 14:51:35;;;;;;;2.75;1.05;;;;;;;;;;7387006;19;20148;-80
2022/06/27 14:54:01;;;;;;;1.80;0.82;;;;;;;;;;7393845;19;20149;-80
2022/06/27 14:56:26;;;;;;;1.25;0.90;;;;;;;;;;7382531;19;20200;-80
2022/06/27 14:58:51;;;;;;;2.38;1.10;;;;;;;;;;7415542;19;20153;-80
2022/06/27 15:01:17;;;;;;;1.50;1.25;;;;;;;;;;7412719;19;20164;-80
2022/06/27 15:03:42;;;;;;;1.30;1.20;;;;;;;;;;7388858;19;20176;-80
2022/06/27 15:06:09;;;;;;;5.65;1.20;;;;;;;;;;7387679;19;20182;-80
2022/06/27 15:08:35;;;;;;;2.08;1.10;;;;;;;;;;7385210;19;20143;-80
2022/06/27 15:13:45;;;;;;;1.70;1.10;;;;;;;;;;7385049;19;20165;-80
2022/06/27 15:16:10;;;;;;;1.48;1.38;;;;;;;;;;7381774;19;20145;-80
2022/06/27 15:18:35;;;;;;;1.33;1.00;;;;;;;;;;7384205;19;20149;-79
2022/06/27 15:21:01;;;;;;;2.90;1.30;;;;;;;;;;7383394;19;20187;-79
2022/06/27 15:23:26;;;;;;;3.33;0.93;;;;;;;;;;7378300;19;20607;-79
2022/06/27 15:25:52;;;;;;;0.90;0.90;;;;;;;;;;7386273;19;20133;-80
2022/06/27 15:28:17;;;;;;;3.30;1.30;;;;;;;;;;7376396;19;20149;-80
2022/06/27 15:30:42;;;;;;;1.73;1.10;;;;;;;;;;7372964;19;20152;-80
2022/06/27 15:33:08;;;;;;;2.35;1.45;;;;;;;;;;7374856;19;20236;-79
2022/06/27 15:35:34;;;;;;;2.85;1.00;;;;;;;;;;7362068;19;20235;-79
2022/06/27 15:37:59;;;;;;;3.83;1.10;;;;;;;;;;7368142;19;20239;-79
2022/06/27 15:40:25;;;;;;;1.13;0.98;;;;;;;;;;7360938;19;20165;-79
2022/06/27 15:42:50;;;;;;;1.10;1.02;;;;;;;;;;7382910;19;20153;-80
2022/06/27 15:45:15;;;;;;;1.50;0.93;;;;;;;;;;7369414;19;20149;-79
2022/06/27 15:47:42;;;;;;;2.22;1.17;;;;;;;;;;7367449;19;20981;-79
2022/06/27 15:50:08;;;;;;;4.90;1.30;;;;;;;;;;7365405;19;20248;-80
2022/06/27 15:52:35;;;;;;;5.28;1.90;;;;;;;;;;7373271;19;20206;-79
2022/06/27 15:55:02;;;;;;;15.45;10.95;;;;;;;;;;7368193;19;20148;-79
2022/06/27 15:57:27;;;;;;;6.18;3.00;;;;;;;;;;7371379;19;20129;-81
2022/06/27 15:59:52;;;;;;;14.60;3.78;;;;;;;;;;7383780;19;20117;-81
2022/06/27 16:02:18;;;;;;;5.50;2.10;;;;;;;;;;7386495;19;20422;-80
2022/06/27 16:04:43;;;;;;;3.35;2.17;;;;;;;;;;7393082;19;21752;-82
2022/06/27 16:07:08;;;;;;;67.75;6.82;;;;;;;;;;7382500;19;20161;-81
2022/06/27 16:09:34;;;;;;;10.75;3.42;;;;;;;;;;7386220;19;20150;-79
2022/06/27 16:11:59;;;;;;;10.25;3.22;;;;;;;;;;7376644;19;20643;-82
2022/06/27 16:14:25;;;;;;;5.13;2.55;;;;;;;;;;7378089;19;20144;-80
2022/06/27 16:16:50;;;;;;;5.22;2.35;;;;;;;;;;7381317;19;20172;-81
2022/06/27 16:19:16;;;;;;;6.80;2.50;;;;;;;;;;7384477;19;20148;-79
2022/06/27 16:21:41;;;;;;;4.35;2.40;;;;;;;;;;7378459;19;20173;-80
2022/06/27 16:24:07;;;;;;;4.25;2.35;;;;;;;;;;7388873;19;20164;-80
2022/06/27 16:26:33;;;;;;;3.20;2.20;;;;;;;;;;7407676;19;20160;-79
2022/06/27 16:28:58;;;;;;;2.17;1.98;;;;;;;;;;7414686;19;20149;-79
2022/06/27 16:31:43;;;;;;;3.10;1.70;;;;;;;;;;7414273;19;20145;-80
2022/06/27 16:34:12;;;;;;;4.03;2.45;;;;;;;;;;7415310;19;20148;-82
2022/06/27 16:36:37;;;;;;;2.58;1.85;;;;;;;;;;7412522;19;20137;-79
2022/06/27 16:39:03;;;;;;;13.27;9.95;;;;;;;;;;7389372;19;20151;-79
2022/06/27 16:43:13;;;;;;;4.72;3.90;;;;;;;;;;7382491;19;20156;-80
2022/06/27 16:44:14;;;;;;;3.45;2.50;;;;;;;;;;7387220;19;20163;-79
2022/06/27 16:46:39;;;;;;;2.75;2.30;;;;;;;;;;7389947;19;20149;-80
2022/06/27 16:49:04;;;;;;;2.97;1.70;;;;;;;;;;7392367;19;20584;-79
2022/06/27 16:51:30;;;;;;;1.80;1.50;;;;;;;;;;7394127;19;20180;-82
2022/06/27 16:53:57;;;;;;;2.33;1.70;;;;;;;;;;7386725;19;20117;-79
2022/06/27 16:56:23;;;;;;;3.22;1.85;;;;;;;;;;7378857;19;20167;-79
2022/06/27 16:58:48;;;;;;;2.08;1.60;;;;;;;;;;7383035;19;20137;-81
2022/06/27 17:01:14;;;;;;;11.63;7.95;;;;;;;;;;7382349;19;20177;-80
2022/06/27 17:03:40;;;;;;;2.47;2.10;;;;;;;;;;7386625;19;20137;-80
2022/06/27 17:06:05;;;;;;;3.10;2.08;;;;;;;;;;7382289;19;20166;-79
2022/06/27 17:08:31;;;;;;;3.10;2.45;;;;;;;;;;7383896;19;20170;-81
2022/06/27 17:10:56;;;;;;;3.30;2.00;;;;;;;;;;7377060;19;20241;-80
2022/06/27 17:13:21;;;;;;;3.50;1.67;;;;;;;;;;7377481;19;20156;-81
2022/06/27 17:15:47;;;;;;;3.63;1.50;;;;;;;;;;7381721;19;20642;-80
2022/06/27 17:18:13;;;;;;;2.83;1.80;;;;;;;;;;7387529;19;20155;-80
2022/06/27 17:20:38;;;;;;;1.85;1.50;;;;;;;;;;7380613;19;20643;-79
2022/06/27 17:23:04;;;;;;;3.13;1.63;;;;;;;;;;7385537;19;20168;-80
2022/06/27 17:25:30;;;;;;;1.65;1.40;;;;;;;;;;7388044;19;20125;-79
2022/06/27 17:27:56;;;;;;;2.08;1.38;;;;;;;;;;7389835;19;20121;-79
2022/06/27 17:30:21;;;;;;;1.70;1.38;;;;;;;;;;7384304;19;20176;-78
2022/06/27 17:32:46;;;;;;;1.05;0.95;;;;;;;;;;7388962;19;20144;-78
2022/06/27 17:35:12;;;;;;;1.23;1.10;;;;;;;;;;7383872;19;20149;-79
2022/06/27 17:37:39;;;;;;;1.73;1.10;;;;;;;;;;7385028;19;20626;-79
